createdAt,value
2023-04-02T00:02:31.745Z,56.50
2023-04-02T00:05:16.733Z,57.37
2023-04-02T00:07:53.300Z,56.88
2023-04-02T00:10:26.146Z,57.00
2023-04-02T00:13:19.025Z,56.74
2023-04-02T00:15:47.074Z,57.86
2023-04-02T00:18:16.822Z,57.68
2023-04-02T00:20:45.204Z,57.94
2023-04-02T00:23:12.492Z,58.92
2023-04-02T00:25:43.157Z,58.83
2023-04-02T00:28:17.130Z,58.93
2023-04-02T00:30:51.666Z,58.80
2023-04-02T00:33:28.097Z,58.45
2023-04-02T00:35:54.924Z,58.82
2023-04-02T00:38:26.182Z,58.77
2023-04-02T00:40:53.158Z,59.04
2023-04-02T00:43:23.058Z,58.79
2023-04-02T00:45:54.913Z,58.73
2023-04-02T00:48:31.799Z,58.46
2023-04-02T00:51:04.105Z,59.13
2023-04-02T00:53:30.942Z,59.28
2023-04-02T00:55:59.894Z,58.93
2023-04-02T00:58:36.807Z,59.35
2023-04-02T01:01:04.770Z,59.61
2023-04-02T01:03:34.895Z,59.11
2023-04-02T01:06:03.318Z,59.13
2023-04-02T01:08:39.501Z,59.19
2023-04-02T01:11:14.863Z,59.45
2023-04-02T01:13:50.813Z,59.25
2023-04-02T01:16:38.663Z,59.19
2023-04-02T01:19:13.729Z,59.32
2023-04-02T01:21:52.944Z,59.62
2023-04-02T01:24:19.917Z,59.79
2023-04-02T01:26:59.913Z,59.87
2023-04-02T01:29:27.922Z,59.93
2023-04-02T01:31:58.166Z,59.55
2023-04-02T01:34:28.370Z,59.76
2023-04-02T01:37:01.188Z,59.48
2023-04-02T01:39:34.760Z,59.28
2023-04-02T01:42:11.432Z,59.60
2023-04-02T01:44:47.756Z,60.10
2023-04-02T01:47:17.749Z,60.14
2023-04-02T01:49:44.951Z,60.25
2023-04-02T01:52:19.627Z,59.99
2023-04-02T01:54:48.722Z,60.04
2023-04-02T01:57:17.734Z,59.43
2023-04-02T01:59:45.060Z,59.55
2023-04-02T02:02:12.832Z,59.66
2023-04-02T02:04:43.604Z,59.96
2023-04-02T02:07:17.305Z,60.00
2023-04-02T02:09:48.144Z,59.86
2023-04-02T02:12:17.873Z,59.81
2023-04-02T02:14:52.562Z,59.50
2023-04-02T02:17:34.645Z,59.25
2023-04-02T02:20:01.614Z,58.79
2023-04-02T02:22:29.904Z,58.60
2023-04-02T02:24:57.866Z,58.46
2023-04-02T02:27:30.694Z,58.05
2023-04-02T02:30:07.613Z,58.46
2023-04-02T02:32:34.511Z,58.18
2023-04-02T02:35:16.081Z,58.01
2023-04-02T02:37:44.301Z,58.15
2023-04-02T02:40:23.318Z,58.50
2023-04-02T02:42:52.737Z,58.54
2023-04-02T02:45:20.845Z,58.55
2023-04-02T02:47:48.150Z,59.10
2023-04-02T02:50:22.400Z,59.24
2023-04-02T02:52:56.393Z,59.55
2023-04-02T02:55:24.878Z,59.45
2023-04-02T02:58:19.320Z,59.74
2023-04-02T03:01:06.554Z,59.55
2023-04-02T03:03:35.737Z,59.55
2023-04-02T03:06:06.362Z,59.60
2023-04-02T03:08:37.254Z,60.04
2023-04-02T03:11:07.225Z,60.43
2023-04-02T03:13:35.747Z,60.52
2023-04-02T03:16:29.376Z,60.19
2023-04-02T03:18:56.044Z,60.48
2023-04-02T03:21:42.180Z,60.52
2023-04-02T03:24:11.880Z,60.46
2023-04-02T03:26:49.075Z,60.33
2023-04-02T03:29:22.581Z,60.37
2023-04-02T03:31:58.203Z,60.39
2023-04-02T03:34:26.050Z,60.36
2023-04-02T03:37:14.652Z,60.44
2023-04-02T03:39:44.458Z,60.31
2023-04-02T03:42:19.680Z,60.18
2023-04-02T03:44:46.543Z,60.31
2023-04-02T03:47:24.550Z,60.37
2023-04-02T03:49:56.550Z,60.60
2023-04-02T03:52:26.679Z,60.36
2023-04-02T03:54:59.069Z,60.28
2023-04-02T03:57:36.041Z,60.75
2023-04-02T04:00:17.472Z,60.51
2023-04-02T04:02:57.509Z,60.28
2023-04-02T04:05:24.536Z,60.04
2023-04-02T04:07:55.146Z,60.57
2023-04-02T04:10:25.362Z,61.41
2023-04-02T04:12:53.017Z,60.57
2023-04-02T04:15:22.887Z,60.22
2023-04-02T04:17:54.126Z,60.06
2023-04-02T04:20:29.911Z,60.16
2023-04-02T04:22:59.391Z,59.92
2023-04-02T04:25:29.680Z,59.73
2023-04-02T04:28:16.700Z,59.80
2023-04-02T04:30:52.506Z,60.23
2023-04-02T04:33:23.314Z,60.24
2023-04-02T04:35:58.782Z,60.25
2023-04-02T04:38:34.364Z,60.27
2023-04-02T04:41:03.412Z,60.38
2023-04-02T04:43:47.898Z,60.18
2023-04-02T04:46:29.007Z,60.52
2023-04-02T04:48:59.618Z,60.30
2023-04-02T04:51:28.877Z,61.13
2023-04-02T04:53:59.946Z,61.55
2023-04-02T04:56:32.165Z,61.84
2023-04-02T04:59:28.215Z,62.00
2023-04-02T05:02:00.765Z,61.97
2023-04-02T05:04:40.130Z,61.82
2023-04-02T05:07:13.427Z,61.69
2023-04-02T05:09:44.500Z,61.38
2023-04-02T05:12:19.644Z,61.42
2023-04-02T05:14:46.811Z,61.18
2023-04-02T05:17:21.040Z,60.90
2023-04-02T05:19:57.099Z,60.78
2023-04-02T05:22:24.537Z,60.73
2023-04-02T05:24:53.094Z,61.01
2023-04-02T05:27:26.130Z,59.81
2023-04-02T05:29:59.668Z,59.92
2023-04-02T05:32:28.608Z,59.95
2023-04-02T05:34:57.899Z,59.41
2023-04-02T05:37:26.381Z,59.04
2023-04-02T05:39:56.691Z,59.56
2023-04-02T05:42:24.814Z,59.22
2023-04-02T05:45:25.960Z,59.50
2023-04-02T05:48:02.189Z,59.53
2023-04-02T05:50:42.797Z,59.35
2023-04-02T05:53:39.559Z,58.75
2023-04-02T05:56:10.727Z,58.26
2023-04-02T05:58:51.599Z,58.17
2023-04-02T06:08:11.913Z,57.39
2023-04-02T06:10:47.453Z,57.04
2023-04-02T06:16:24.562Z,56.29
2023-04-02T06:19:27.974Z,56.05
2023-04-02T06:22:17.336Z,55.25
2023-04-02T06:24:45.152Z,56.34
2023-04-02T06:27:23.946Z,55.60
2023-04-02T06:29:52.954Z,56.07
2023-04-02T06:32:20.525Z,55.64
2023-04-02T06:34:47.746Z,55.25
2023-04-02T06:37:22.823Z,56.02
2023-04-02T06:39:56.515Z,56.05
2023-04-02T06:42:25.560Z,56.72
2023-04-02T06:45:22.554Z,56.64
2023-04-02T06:48:06.413Z,56.30
2023-04-02T06:50:46.571Z,56.07
2023-04-02T06:53:19.382Z,55.24
2023-04-02T06:56:06.048Z,54.70
2023-04-02T06:58:34.650Z,54.24
2023-04-02T07:01:02.126Z,53.62
2023-04-02T07:03:55.348Z,54.84
2023-04-02T07:06:27.835Z,53.25
2023-04-02T07:08:58.259Z,52.92
2023-04-02T07:11:27.816Z,53.16
2023-04-02T07:13:57.924Z,52.67
2023-04-02T07:16:26.682Z,52.70
2023-04-02T07:18:58.732Z,52.53
2023-04-02T07:21:28.569Z,51.36
2023-04-02T07:23:58.225Z,52.57
2023-04-02T07:26:27.243Z,51.74
2023-04-02T07:28:54.740Z,51.75
2023-04-02T07:31:23.769Z,50.76
2023-04-02T07:33:50.878Z,50.95
2023-04-02T07:36:18.888Z,51.77
2023-04-02T07:38:45.558Z,51.89
2023-04-02T07:41:12.331Z,51.20
2023-04-02T07:43:41.424Z,51.08
2023-04-02T07:46:16.057Z,51.37
2023-04-02T07:48:43.769Z,50.78
2023-04-02T07:51:21.225Z,51.34
2023-04-02T07:53:59.465Z,50.76
2023-04-02T07:56:26.681Z,50.60
2023-04-02T07:58:53.624Z,51.25
2023-04-02T08:01:26.514Z,51.39
2023-04-02T08:03:56.956Z,50.56
2023-04-02T08:06:26.075Z,51.11
2023-04-02T08:08:52.934Z,51.23
2023-04-02T08:11:28.105Z,51.37
2023-04-02T08:14:07.369Z,51.54
2023-04-02T08:17:06.606Z,50.95
2023-04-02T08:19:41.567Z,51.77
2023-04-02T08:22:21.761Z,52.67
2023-04-02T08:24:50.910Z,51.50
2023-04-02T08:27:19.725Z,51.74
2023-04-02T08:29:46.519Z,51.58
2023-04-02T08:32:13.389Z,50.42
2023-04-02T08:34:40.082Z,50.70
2023-04-02T08:37:06.822Z,50.32
2023-04-02T08:39:38.352Z,50.76
2023-04-02T08:42:08.340Z,48.82
2023-04-02T08:44:54.261Z,49.40
2023-04-02T08:47:32.116Z,48.64
2023-04-02T08:50:02.544Z,47.40
2023-04-02T08:52:33.130Z,47.41
2023-04-02T08:55:03.960Z,46.53
2023-04-02T08:57:31.379Z,46.71
2023-04-02T09:00:22.048Z,47.60
2023-04-02T09:02:59.966Z,46.81
2023-04-02T09:05:28.513Z,46.19
2023-04-02T09:07:56.166Z,45.39
2023-04-02T09:10:23.091Z,44.68
2023-04-02T09:12:52.884Z,45.14
2023-04-02T09:15:26.702Z,46.30
2023-04-02T09:17:59.625Z,46.10
2023-04-02T09:20:38.033Z,46.55
2023-04-02T09:23:05.189Z,45.51
2023-04-02T09:25:32.529Z,45.94
2023-04-02T09:28:08.517Z,45.86
2023-04-02T09:30:41.059Z,46.51
2023-04-02T09:33:11.639Z,46.40
2023-04-02T09:35:53.966Z,46.29
2023-04-02T09:38:26.801Z,46.13
2023-04-02T09:41:04.359Z,45.42
2023-04-02T09:43:38.173Z,44.98
2023-04-02T09:46:24.097Z,45.95
2023-04-02T09:48:58.550Z,45.58
2023-04-02T09:51:29.500Z,46.16
2023-04-02T09:54:02.805Z,46.51
2023-04-02T09:56:30.222Z,45.86
2023-04-02T09:59:03.388Z,46.53
2023-04-02T10:01:36.748Z,46.43
2023-04-02T10:04:04.170Z,46.29
2023-04-02T10:06:36.309Z,46.08
2023-04-02T10:09:35.503Z,46.28
2023-04-02T10:12:02.879Z,45.13
2023-04-02T10:14:39.284Z,45.67
2023-04-02T10:17:13.587Z,46.39
2023-04-02T10:19:43.674Z,46.08
2023-04-02T10:22:12.842Z,45.85
2023-04-02T10:24:43.122Z,46.04
2023-04-02T10:27:35.791Z,44.88
2023-04-02T10:30:30.211Z,45.64
2023-04-02T10:33:09.558Z,45.28
2023-04-02T10:35:53.875Z,44.98
2023-04-02T10:38:36.437Z,46.01
2023-04-02T10:41:18.695Z,45.05
2023-04-02T10:43:53.858Z,44.79
2023-04-02T10:46:25.300Z,44.53
2023-04-02T10:49:19.414Z,44.57
2023-04-02T10:51:47.190Z,44.42
2023-04-02T10:54:38.839Z,43.78
2023-04-02T10:57:10.748Z,44.36
2023-04-02T10:59:41.257Z,45.37
2023-04-02T11:02:39.781Z,44.65
2023-04-02T11:05:24.717Z,43.51
2023-04-02T11:08:47.874Z,42.89
2023-04-02T11:11:46.706Z,42.62
2023-04-02T11:14:32.537Z,42.05
2023-04-02T11:17:23.229Z,40.68
2023-04-02T11:20:02.380Z,41.35
2023-04-02T11:22:29.308Z,40.21
2023-04-02T11:24:59.458Z,39.17
2023-04-02T11:27:29.691Z,39.29
2023-04-02T11:30:18.282Z,40.58
2023-04-02T11:32:47.355Z,40.16
2023-04-02T11:35:26.261Z,40.85
2023-04-02T11:37:55.562Z,39.33
2023-04-02T11:40:45.357Z,39.10
2023-04-02T11:43:30.686Z,37.86
2023-04-02T11:46:48.602Z,37.67
2023-04-02T11:57:45.993Z,38.53
2023-04-02T12:00:40.975Z,38.99
2023-04-02T12:03:55.588Z,36.74
2023-04-02T12:06:47.423Z,36.74
2023-04-02T12:09:50.155Z,37.37
2023-04-02T12:12:30.531Z,35.19
2023-04-02T12:15:02.183Z,34.86
2023-04-02T12:17:33.967Z,34.43
2023-04-02T12:20:08.516Z,34.19
2023-04-02T12:22:42.017Z,35.13
2023-04-02T12:25:29.486Z,34.59
2023-04-02T12:28:20.730Z,34.41
2023-04-02T12:30:47.678Z,33.37
2023-04-02T12:33:23.515Z,34.33
2023-04-02T12:35:55.162Z,35.71
2023-04-02T12:38:28.063Z,34.43
2023-04-02T12:41:02.673Z,32.64
2023-04-02T12:48:09.997Z,32.89
2023-04-02T12:50:37.094Z,33.30
2023-04-02T12:53:08.222Z,32.19
2023-04-02T12:55:34.892Z,32.79
2023-04-02T12:58:03.713Z,32.89
2023-04-02T13:00:33.118Z,33.32
2023-04-02T13:03:10.689Z,33.74
2023-04-02T13:05:56.302Z,32.75
2023-04-02T13:08:42.209Z,31.54
2023-04-02T13:15:19.814Z,31.88
2023-04-02T13:17:48.942Z,30.88
2023-04-02T13:20:35.276Z,30.79
2023-04-02T13:23:28.312Z,30.47
2023-04-02T13:26:04.532Z,28.82
2023-04-02T13:28:32.565Z,29.03
2023-04-02T13:31:06.027Z,27.37
2023-04-02T13:33:33.152Z,27.98
2023-04-02T13:36:00.407Z,26.75
2023-04-02T13:38:50.183Z,27.58
2023-04-02T13:41:22.816Z,26.21
2023-04-02T13:43:50.723Z,25.10
2023-04-02T13:46:29.238Z,25.01
2023-04-02T13:48:56.332Z,26.47
2023-04-02T13:51:26.102Z,25.84
2023-04-02T13:53:54.580Z,24.73
2023-04-02T13:56:24.713Z,24.68
2023-04-02T13:58:51.591Z,23.40
2023-04-02T14:01:21.225Z,24.06
2023-04-02T14:03:52.591Z,24.01
2023-04-02T14:06:25.712Z,23.47
2023-04-02T14:08:55.960Z,22.76
2023-04-02T14:11:25.368Z,21.64
2023-04-02T14:13:55.102Z,22.20
2023-04-02T14:16:31.428Z,22.24
2023-04-02T14:19:04.078Z,22.34
2023-04-02T14:21:34.318Z,22.79
2023-04-02T14:24:10.701Z,21.15
2023-04-02T14:26:40.442Z,22.16
2023-04-02T14:29:08.005Z,23.94
2023-04-02T14:31:35.692Z,26.22
2023-04-02T14:34:02.538Z,27.89
2023-04-02T14:36:29.142Z,26.60
2023-04-02T14:39:01.281Z,26.15
2023-04-02T14:41:41.144Z,27.39
2023-04-02T14:44:07.872Z,28.03
2023-04-02T14:46:37.613Z,31.02
2023-04-02T14:49:18.957Z,33.17
2023-04-02T14:51:51.175Z,35.23
2023-04-02T14:54:23.887Z,34.38
2023-04-02T14:56:50.931Z,36.70
2023-04-02T14:59:33.066Z,35.16
2023-04-02T15:02:18.608Z,36.99
2023-04-02T15:04:58.040Z,40.80
2023-04-02T15:07:27.921Z,43.44
2023-04-02T15:09:56.922Z,44.13
2023-04-02T15:12:24.625Z,43.53
2023-04-02T15:14:53.952Z,43.28
2023-04-02T15:17:20.596Z,44.53
2023-04-02T15:19:49.666Z,48.85
2023-04-02T15:22:28.749Z,51.98
2023-04-02T15:24:55.503Z,55.80
2023-04-02T15:27:27.117Z,57.27
2023-04-02T15:29:53.821Z,56.54
2023-04-02T15:32:25.963Z,59.74
2023-04-02T15:34:56.282Z,60.44
2023-04-02T15:37:26.277Z,61.04
2023-04-02T15:40:05.040Z,60.24
2023-04-02T15:42:33.559Z,60.64
2023-04-02T15:45:02.493Z,61.97
2023-04-02T15:47:49.332Z,61.65
2023-04-02T15:50:38.259Z,60.63
2023-04-02T15:53:16.603Z,60.16
2023-04-02T15:55:48.022Z,59.88
2023-04-02T15:58:27.511Z,62.73
2023-04-02T16:00:56.570Z,63.31
2023-04-02T16:03:25.561Z,62.92
2023-04-02T16:06:17.081Z,62.87
2023-04-02T16:08:57.030Z,61.21
2023-04-02T16:11:26.338Z,56.64
2023-04-02T16:14:00.765Z,54.85
2023-04-02T16:16:31.495Z,51.73
2023-04-02T16:19:16.757Z,49.81
2023-04-02T16:21:46.128Z,49.37
2023-04-02T16:24:15.498Z,48.20
2023-04-02T16:26:45.161Z,48.37
2023-04-02T16:29:14.217Z,47.95
2023-04-02T16:31:44.138Z,47.09
2023-04-02T16:34:15.589Z,46.75
2023-04-02T16:36:56.823Z,46.06
2023-04-02T16:39:33.293Z,45.62
2023-04-02T16:42:08.387Z,44.78
2023-04-02T16:44:35.069Z,44.57
2023-04-02T16:47:04.773Z,44.67
2023-04-02T16:49:36.224Z,44.10
2023-04-02T16:52:02.878Z,44.12
2023-04-02T16:54:38.980Z,44.65
2023-04-02T16:57:38.680Z,45.23
2023-04-02T17:00:17.973Z,46.20
2023-04-02T17:02:44.609Z,46.61
2023-04-02T17:05:31.281Z,45.32
2023-04-02T17:08:10.438Z,46.86
2023-04-02T17:11:09.408Z,47.62
2023-04-02T17:13:43.043Z,47.67
2023-04-02T17:16:22.845Z,48.03
2023-04-02T17:18:51.355Z,48.30
2023-04-02T17:21:21.755Z,48.28
2023-04-02T17:23:56.411Z,48.69
2023-04-02T17:26:30.975Z,49.50
2023-04-02T17:28:58.350Z,49.61
2023-04-02T17:31:28.004Z,50.06
2023-04-02T17:33:55.075Z,49.17
2023-04-02T17:36:39.926Z,48.75
2023-04-02T17:39:15.753Z,49.04
2023-04-02T17:41:45.520Z,48.54
2023-04-02T17:44:27.143Z,48.72
2023-04-02T17:46:57.937Z,48.57
2023-04-02T17:49:28.065Z,49.22
2023-04-02T17:52:02.215Z,49.01
2023-04-02T17:54:34.348Z,49.66
2023-04-02T17:57:08.510Z,49.60
2023-04-02T17:59:39.313Z,48.80
2023-04-02T18:02:26.670Z,48.57
2023-04-02T18:05:02.538Z,48.28
2023-04-02T18:07:40.634Z,48.40
2023-04-02T18:10:10.356Z,48.63
2023-04-02T18:12:50.595Z,49.09
2023-04-02T18:15:28.708Z,48.57
2023-04-02T18:18:07.475Z,49.01
2023-04-02T18:20:39.163Z,48.53
2023-04-02T18:23:24.943Z,49.15
2023-04-02T18:25:54.296Z,49.26
2023-04-02T18:28:21.036Z,49.55
2023-04-02T18:30:52.610Z,50.02
2023-04-02T18:33:28.610Z,50.20
2023-04-02T18:35:59.800Z,50.25
2023-04-02T18:38:31.545Z,50.25
2023-04-02T18:41:03.582Z,50.03
2023-04-02T18:43:49.981Z,50.35
2023-04-02T18:46:20.592Z,50.50
2023-04-02T18:48:53.655Z,50.51
2023-04-02T18:51:29.492Z,50.33
2023-04-02T18:54:16.757Z,50.42
2023-04-02T18:56:46.599Z,50.65
2023-04-02T18:59:28.811Z,50.40
2023-04-02T19:01:55.398Z,50.68
2023-04-02T19:04:31.833Z,50.90
2023-04-02T19:07:12.101Z,50.37
2023-04-02T19:09:40.816Z,50.75
2023-04-02T19:12:19.110Z,50.84
2023-04-02T19:14:50.137Z,50.34
2023-04-02T19:17:29.709Z,50.35
2023-04-02T19:20:08.845Z,50.47
2023-04-02T19:22:38.565Z,50.53
2023-04-02T19:25:05.142Z,50.59
2023-04-02T19:27:34.669Z,51.11
2023-04-02T19:30:08.688Z,51.22
2023-04-02T19:32:38.486Z,50.36
2023-04-02T19:35:14.383Z,50.48
2023-04-02T19:37:46.605Z,51.08
2023-04-02T19:40:17.214Z,51.46
2023-04-02T19:42:47.566Z,51.14
2023-04-02T19:45:34.354Z,51.46
2023-04-02T19:48:03.875Z,51.99
2023-04-02T19:50:30.573Z,51.62
2023-04-02T19:52:59.594Z,51.37
2023-04-02T19:55:26.506Z,51.17
2023-04-02T19:57:57.836Z,51.32
2023-04-02T20:00:31.266Z,51.08
2023-04-02T20:02:57.926Z,50.66
2023-04-02T20:05:24.560Z,50.11
2023-04-02T20:07:51.249Z,50.21
2023-04-02T20:10:18.139Z,50.81
2023-04-02T20:12:45.079Z,50.50
2023-04-02T20:15:11.897Z,50.53
2023-04-02T20:17:40.952Z,50.29
2023-04-02T20:20:10.804Z,49.77
2023-04-02T20:22:37.505Z,50.52
2023-04-02T20:25:04.287Z,50.13
2023-04-02T20:27:31.217Z,50.63
2023-04-02T20:30:00.389Z,50.74
2023-04-02T20:32:27.302Z,50.23
2023-04-02T20:34:54.601Z,50.90
2023-04-02T20:37:21.543Z,50.45
2023-04-02T20:39:48.409Z,50.43
2023-04-02T20:42:17.488Z,50.28
2023-04-02T20:44:49.287Z,50.15
2023-04-02T20:47:16.318Z,49.52
2023-04-02T20:49:45.436Z,50.10
2023-04-02T20:52:12.167Z,49.99
2023-04-02T20:54:38.803Z,49.37
2023-04-02T20:57:05.493Z,49.63
2023-04-02T20:59:34.566Z,50.37
2023-04-02T21:02:01.577Z,49.77
2023-04-02T21:04:28.479Z,50.47
2023-04-02T21:06:57.425Z,50.33
2023-04-02T21:09:24.088Z,50.37
2023-04-02T21:11:53.404Z,49.64
2023-04-02T21:14:20.242Z,49.84
2023-04-02T21:16:47.301Z,50.14
2023-04-02T21:19:13.952Z,50.25
2023-04-02T21:21:40.954Z,50.86
2023-04-02T21:24:10.668Z,50.95
2023-04-02T21:26:38.454Z,51.06
2023-04-02T21:29:07.575Z,51.25
2023-04-02T21:31:37.766Z,50.98
2023-04-02T21:34:08.486Z,51.26
2023-04-02T21:36:36.434Z,50.81
2023-04-02T21:39:06.650Z,51.11
2023-04-02T21:41:36.505Z,50.92
2023-04-02T21:44:03.994Z,50.33
2023-04-02T21:46:31.881Z,50.46
2023-04-02T21:49:01.101Z,50.94
2023-04-02T21:51:28.519Z,50.65
2023-04-02T21:53:57.576Z,50.96
2023-04-02T21:56:29.304Z,50.75
2023-04-02T21:58:58.868Z,50.69
2023-04-02T22:01:28.697Z,50.68
2023-04-02T22:03:58.403Z,50.20
2023-04-02T22:06:25.905Z,49.85
2023-04-02T22:08:54.141Z,50.13
2023-04-02T22:11:24.180Z,50.31
2023-04-02T22:13:51.143Z,50.88
2023-04-02T22:16:22.151Z,50.61
2023-04-02T22:18:49.370Z,50.03
2023-04-02T22:21:16.584Z,49.99
2023-04-02T22:23:46.074Z,50.64
2023-04-02T22:26:13.409Z,49.86
2023-04-02T22:28:42.980Z,49.68
2023-04-02T22:31:11.900Z,51.01
2023-04-02T22:33:38.645Z,50.43
2023-04-02T22:36:05.580Z,50.04
2023-04-02T22:38:32.613Z,50.45
2023-04-02T22:41:03.654Z,50.14
2023-04-02T22:43:34.833Z,50.06
2023-04-02T22:46:03.914Z,49.89
2023-04-02T22:48:30.683Z,50.08
2023-04-02T22:50:57.623Z,49.70
2023-04-02T22:53:24.389Z,49.67
2023-04-02T22:55:52.340Z,49.32
2023-04-02T22:58:19.681Z,49.15
2023-04-02T23:00:46.518Z,48.75
2023-04-02T23:03:15.354Z,49.37
2023-04-02T23:05:42.585Z,49.31
2023-04-02T23:08:09.415Z,48.61
2023-04-02T23:10:38.617Z,48.82
2023-04-02T23:13:05.602Z,49.24
2023-04-02T23:15:32.191Z,48.96
2023-04-02T23:17:58.940Z,48.65
2023-04-02T23:20:27.946Z,49.17
2023-04-02T23:22:57.555Z,49.59
2023-04-02T23:25:24.405Z,50.19
2023-04-02T23:27:51.045Z,49.97
2023-04-02T23:30:17.626Z,49.71
2023-04-02T23:32:44.309Z,49.31
2023-04-02T23:35:13.509Z,49.66
2023-04-02T23:37:42.656Z,49.12
2023-04-02T23:40:09.572Z,49.22
2023-04-02T23:42:36.381Z,48.88
2023-04-02T23:45:03.178Z,49.41
2023-04-02T23:47:29.788Z,50.20
2023-04-02T23:49:56.581Z,49.25
2023-04-02T23:52:23.643Z,49.56
2023-04-02T23:54:50.514Z,49.80
2023-04-02T23:57:17.355Z,50.03
2023-04-02T23:59:44.001Z,49.28
